sensor_id;sensor_type;location;lat;lon;timestamp;temperature;humidity
33508;DHT22;25568;37.410;-122.096;2023-12-20T00:02:11;19.90;94.10
33508;DHT22;25568;37.410;-122.096;2023-12-20T00:04:41;19.90;94.10
33508;DHT22;25568;37.410;-122.096;2023-12-20T00:07:11;19.90;94.10
33508;DHT22;25568;37.410;-122.096;2023-12-20T00:09:44;19.90;94.10
33508;DHT22;25568;37.410;-122.096;2023-12-20T00:12:14;19.90;94.40
33508;DHT22;25568;37.410;-122.096;2023-12-20T00:14:43;19.90;94.00
33508;DHT22;25568;37.410;-122.096;2023-12-20T00:17:12;19.90;94.00
33508;DHT22;25568;37.410;-122.096;2023-12-20T00:19:43;19.90;94.00
33508;DHT22;25568;37.410;-122.096;2023-12-20T00:22:12;19.90;93.90
33508;DHT22;25568;37.410;-122.096;2023-12-20T00:24:43;19.90;93.90
33508;DHT22;25568;37.410;-122.096;2023-12-20T00:27:12;19.90;93.90
33508;DHT22;25568;37.410;-122.096;2023-12-20T00:29:42;19.90;93.90
33508;DHT22;25568;37.410;-122.096;2023-12-20T00:32:14;19.90;93.90
33508;DHT22;25568;37.410;-122.096;2023-12-20T00:34:46;19.90;93.90
33508;DHT22;25568;37.410;-122.096;2023-12-20T00:37:17;19.90;93.90
33508;DHT22;25568;37.410;-122.096;2023-12-20T00:39:48;19.90;93.90
33508;DHT22;25568;37.410;-122.096;2023-12-20T00:42:17;19.90;93.90
33508;DHT22;25568;37.410;-122.096;2023-12-20T00:44:46;19.90;93.90
33508;DHT22;25568;37.410;-122.096;2023-12-20T00:47:17;19.90;93.90
33508;DHT22;25568;37.410;-122.096;2023-12-20T00:49:46;19.90;93.90
33508;DHT22;25568;37.410;-122.096;2023-12-20T00:52:15;19.90;93.90
33508;DHT22;25568;37.410;-122.096;2023-12-20T00:54:47;19.90;93.90
33508;DHT22;25568;37.410;-122.096;2023-12-20T00:57:16;19.90;93.90
33508;DHT22;25568;37.410;-122.096;2023-12-20T00:59:46;19.90;93.90
33508;DHT22;25568;37.410;-122.096;2023-12-20T01:02:15;19.90;93.90
33508;DHT22;25568;37.410;-122.096;2023-12-20T01:04:46;19.90;93.80
33508;DHT22;25568;37.410;-122.096;2023-12-20T01:07:16;19.90;93.80
33508;DHT22;25568;37.410;-122.096;2023-12-20T01:09:47;19.80;93.70
33508;DHT22;25568;37.410;-122.096;2023-12-20T01:12:17;19.90;93.80
33508;DHT22;25568;37.410;-122.096;2023-12-20T01:14:49;19.80;93.70
33508;DHT22;25568;37.410;-122.096;2023-12-20T01:17:18;19.80;93.70
33508;DHT22;25568;37.410;-122.096;2023-12-20T01:19:48;19.90;93.70
33508;DHT22;25568;37.410;-122.096;2023-12-20T01:22:17;19.90;93.70
33508;DHT22;25568;37.410;-122.096;2023-12-20T01:24:48;19.80;93.60
33508;DHT22;25568;37.410;-122.096;2023-12-20T01:27:18;19.80;93.60
33508;DHT22;25568;37.410;-122.096;2023-12-20T01:29:47;19.80;93.60
33508;DHT22;25568;37.410;-122.096;2023-12-20T01:32:16;19.80;93.60
33508;DHT22;25568;37.410;-122.096;2023-12-20T01:34:46;19.80;93.50
33508;DHT22;25568;37.410;-122.096;2023-12-20T01:37:16;19.80;93.50
33508;DHT22;25568;37.410;-122.096;2023-12-20T01:39:47;19.80;93.50
33508;DHT22;25568;37.410;-122.096;2023-12-20T01:42:16;19.80;93.60
33508;DHT22;25568;37.410;-122.096;2023-12-20T01:44:47;19.80;93.50
33508;DHT22;25568;37.410;-122.096;2023-12-20T01:47:18;19.80;93.50
33508;DHT22;25568;37.410;-122.096;2023-12-20T01:49:49;19.80;93.40
33508;DHT22;25568;37.410;-122.096;2023-12-20T01:52:20;19.80;93.40
33508;DHT22;25568;37.410;-122.096;2023-12-20T01:54:52;19.80;93.40
33508;DHT22;25568;37.410;-122.096;2023-12-20T01:57:27;19.80;93.40
33508;DHT22;25568;37.410;-122.096;2023-12-20T01:59:58;19.80;93.40
33508;DHT22;25568;37.410;-122.096;2023-12-20T02:02:32;19.80;93.40
33508;DHT22;25568;37.410;-122.096;2023-12-20T02:05:03;19.80;93.40
33508;DHT22;25568;37.410;-122.096;2023-12-20T02:07:33;19.80;93.40
33508;DHT22;25568;37.410;-122.096;2023-12-20T02:10:09;19.80;93.40
33508;DHT22;25568;37.410;-122.096;2023-12-20T02:12:40;19.80;93.40
33508;DHT22;25568;37.410;-122.096;2023-12-20T02:15:11;19.80;93.70
33508;DHT22;25568;37.410;-122.096;2023-12-20T02:17:42;19.80;93.30
33508;DHT22;25568;37.410;-122.096;2023-12-20T02:20:12;19.80;93.30
33508;DHT22;25568;37.410;-122.096;2023-12-20T02:22:43;19.80;93.30
33508;DHT22;25568;37.410;-122.096;2023-12-20T02:25:13;19.80;93.30
33508;DHT22;25568;37.410;-122.096;2023-12-20T02:27:42;19.80;93.40
33508;DHT22;25568;37.410;-122.096;2023-12-20T02:30:12;19.80;93.30
33508;DHT22;25568;37.410;-122.096;2023-12-20T02:32:41;19.80;93.40
33508;DHT22;25568;37.410;-122.096;2023-12-20T02:35:11;19.80;93.30
33508;DHT22;25568;37.410;-122.096;2023-12-20T02:37:43;19.80;93.30
33508;DHT22;25568;37.410;-122.096;2023-12-20T02:40:13;19.80;93.30
33508;DHT22;25568;37.410;-122.096;2023-12-20T02:42:43;19.80;93.30
33508;DHT22;25568;37.410;-122.096;2023-12-20T02:45:16;19.80;93.40
33508;DHT22;25568;37.410;-122.096;2023-12-20T02:47:46;19.80;93.30
33508;DHT22;25568;37.410;-122.096;2023-12-20T02:50:16;19.70;93.20
33508;DHT22;25568;37.410;-122.096;2023-12-20T02:52:47;19.80;93.20
33508;DHT22;25568;37.410;-122.096;2023-12-20T02:55:19;19.80;93.20
33508;DHT22;25568;37.410;-122.096;2023-12-20T02:57:49;19.80;93.30
33508;DHT22;25568;37.410;-122.096;2023-12-20T03:00:21;19.70;93.20
33508;DHT22;25568;37.410;-122.096;2023-12-20T03:02:51;19.70;93.20
33508;DHT22;25568;37.410;-122.096;2023-12-20T03:05:20;19.70;93.20
33508;DHT22;25568;37.410;-122.096;2023-12-20T03:07:52;19.70;93.20
33508;DHT22;25568;37.410;-122.096;2023-12-20T03:10:22;19.80;93.20
33508;DHT22;25568;37.410;-122.096;2023-12-20T03:12:53;19.80;93.20
33508;DHT22;25568;37.410;-122.096;2023-12-20T03:15:22;19.80;93.30
33508;DHT22;25568;37.410;-122.096;2023-12-20T03:17:52;19.70;93.20
33508;DHT22;25568;37.410;-122.096;2023-12-20T03:20:22;19.80;93.20
33508;DHT22;25568;37.410;-122.096;2023-12-20T03:22:55;19.80;93.30
33508;DHT22;25568;37.410;-122.096;2023-12-20T03:25:24;19.80;93.40
33508;DHT22;25568;37.410;-122.096;2023-12-20T03:27:54;19.80;93.40
33508;DHT22;25568;37.410;-122.096;2023-12-20T03:30:24;19.80;93.60
33508;DHT22;25568;37.410;-122.096;2023-12-20T03:32:55;19.80;93.60
33508;DHT22;25568;37.410;-122.096;2023-12-20T03:35:25;19.80;93.70
33508;DHT22;25568;37.410;-122.096;2023-12-20T03:37:57;19.80;93.70
33508;DHT22;25568;37.410;-122.096;2023-12-20T03:40:33;19.80;93.70
33508;DHT22;25568;37.410;-122.096;2023-12-20T03:43:02;19.80;93.70
33508;DHT22;25568;37.410;-122.096;2023-12-20T03:45:33;19.80;93.70
33508;DHT22;25568;37.410;-122.096;2023-12-20T03:48:07;19.80;93.70
33508;DHT22;25568;37.410;-122.096;2023-12-20T03:50:36;19.80;93.70
33508;DHT22;25568;37.410;-122.096;2023-12-20T03:53:08;19.80;93.70
33508;DHT22;25568;37.410;-122.096;2023-12-20T03:55:40;19.80;93.70
33508;DHT22;25568;37.410;-122.096;2023-12-20T03:58:10;19.80;93.70
33508;DHT22;25568;37.410;-122.096;2023-12-20T04:00:40;19.80;93.70
33508;DHT22;25568;37.410;-122.096;2023-12-20T04:03:09;19.80;93.60
33508;DHT22;25568;37.410;-122.096;2023-12-20T04:05:40;19.80;93.60
33508;DHT22;25568;37.410;-122.096;2023-12-20T04:08:14;19.80;93.50
33508;DHT22;25568;37.410;-122.096;2023-12-20T04:10:45;19.70;93.50
33508;DHT22;25568;37.410;-122.096;2023-12-20T04:13:15;19.70;93.40
33508;DHT22;25568;37.410;-122.096;2023-12-20T04:15:46;19.70;93.40
33508;DHT22;25568;37.410;-122.096;2023-12-20T04:18:20;19.70;93.40
33508;DHT22;25568;37.410;-122.096;2023-12-20T04:20:55;19.70;93.30
33508;DHT22;25568;37.410;-122.096;2023-12-20T04:23:28;19.70;93.30
33508;DHT22;25568;37.410;-122.096;2023-12-20T04:25:57;19.70;93.30
33508;DHT22;25568;37.410;-122.096;2023-12-20T04:28:27;19.70;93.20
33508;DHT22;25568;37.410;-122.096;2023-12-20T04:30:58;19.70;93.20
33508;DHT22;25568;37.410;-122.096;2023-12-20T04:33:28;19.70;93.20
33508;DHT22;25568;37.410;-122.096;2023-12-20T04:35:57;19.70;93.10
33508;DHT22;25568;37.410;-122.096;2023-12-20T04:38:29;19.70;93.10
33508;DHT22;25568;37.410;-122.096;2023-12-20T04:40:58;19.70;93.00
33508;DHT22;25568;37.410;-122.096;2023-12-20T04:43:28;19.70;93.00
33508;DHT22;25568;37.410;-122.096;2023-12-20T04:45:58;19.70;92.90
33508;DHT22;25568;37.410;-122.096;2023-12-20T04:48:29;19.70;92.90
33508;DHT22;25568;37.410;-122.096;2023-12-20T04:50:59;19.70;92.90
33508;DHT22;25568;37.410;-122.096;2023-12-20T04:53:32;19.70;92.90
33508;DHT22;25568;37.410;-122.096;2023-12-20T04:56:02;19.70;92.90
33508;DHT22;25568;37.410;-122.096;2023-12-20T04:58:31;19.70;92.80
33508;DHT22;25568;37.410;-122.096;2023-12-20T05:01:01;19.70;92.80
33508;DHT22;25568;37.410;-122.096;2023-12-20T05:03:30;19.60;92.80
33508;DHT22;25568;37.410;-122.096;2023-12-20T05:05:59;19.60;92.80
33508;DHT22;25568;37.410;-122.096;2023-12-20T05:08:33;19.60;92.80
33508;DHT22;25568;37.410;-122.096;2023-12-20T05:11:03;19.60;92.70
33508;DHT22;25568;37.410;-122.096;2023-12-20T05:13:35;19.60;92.70
33508;DHT22;25568;37.410;-122.096;2023-12-20T05:16:06;19.60;92.70
33508;DHT22;25568;37.410;-122.096;2023-12-20T05:18:36;19.60;92.70
33508;DHT22;25568;37.410;-122.096;2023-12-20T05:21:09;19.60;93.00
33508;DHT22;25568;37.410;-122.096;2023-12-20T05:23:44;19.60;93.20
33508;DHT22;25568;37.410;-122.096;2023-12-20T05:26:13;19.60;93.20
33508;DHT22;25568;37.410;-122.096;2023-12-20T05:28:45;19.60;93.20
33508;DHT22;25568;37.410;-122.096;2023-12-20T05:31:15;19.60;93.30
33508;DHT22;25568;37.410;-122.096;2023-12-20T05:33:44;19.70;93.30
33508;DHT22;25568;37.410;-122.096;2023-12-20T05:36:14;19.70;93.40
33508;DHT22;25568;37.410;-122.096;2023-12-20T05:38:44;19.70;93.40
33508;DHT22;25568;37.410;-122.096;2023-12-20T05:41:14;19.70;93.40
33508;DHT22;25568;37.410;-122.096;2023-12-20T05:43:43;19.70;93.50
33508;DHT22;25568;37.410;-122.096;2023-12-20T05:46:14;19.70;93.50
33508;DHT22;25568;37.410;-122.096;2023-12-20T05:48:46;19.70;93.50
33508;DHT22;25568;37.410;-122.096;2023-12-20T05:51:16;19.70;93.50
33508;DHT22;25568;37.410;-122.096;2023-12-20T05:53:49;19.70;93.50
33508;DHT22;25568;37.410;-122.096;2023-12-20T05:56:20;19.70;93.60
33508;DHT22;25568;37.410;-122.096;2023-12-20T05:58:49;19.70;93.60
33508;DHT22;25568;37.410;-122.096;2023-12-20T06:01:19;19.70;93.60
33508;DHT22;25568;37.410;-122.096;2023-12-20T06:03:48;19.70;93.60
33508;DHT22;25568;37.410;-122.096;2023-12-20T06:06:18;19.70;93.70
33508;DHT22;25568;37.410;-122.096;2023-12-20T06:08:51;19.70;93.70
33508;DHT22;25568;37.410;-122.096;2023-12-20T06:11:20;19.70;93.60
33508;DHT22;25568;37.410;-122.096;2023-12-20T06:13:50;19.70;93.70
33508;DHT22;25568;37.410;-122.096;2023-12-20T06:16:20;19.70;93.70
33508;DHT22;25568;37.410;-122.096;2023-12-20T06:18:50;19.70;93.70
33508;DHT22;25568;37.410;-122.096;2023-12-20T06:21:20;19.70;93.70
33508;DHT22;25568;37.410;-122.096;2023-12-20T06:23:52;19.70;93.70
33508;DHT22;25568;37.410;-122.096;2023-12-20T06:26:21;19.70;93.70
33508;DHT22;25568;37.410;-122.096;2023-12-20T06:28:51;19.60;93.60
33508;DHT22;25568;37.410;-122.096;2023-12-20T06:31:21;19.70;93.70
33508;DHT22;25568;37.410;-122.096;2023-12-20T06:33:50;19.70;93.70
33508;DHT22;25568;37.410;-122.096;2023-12-20T06:36:24;19.70;93.70
33508;DHT22;25568;37.410;-122.096;2023-12-20T06:38:55;19.70;93.60
33508;DHT22;25568;37.410;-122.096;2023-12-20T06:41:24;19.70;93.70
33508;DHT22;25568;37.410;-122.096;2023-12-20T06:43:54;19.70;93.60
33508;DHT22;25568;37.410;-122.096;2023-12-20T06:46:23;19.70;93.60
33508;DHT22;25568;37.410;-122.096;2023-12-20T06:48:52;19.70;93.70
33508;DHT22;25568;37.410;-122.096;2023-12-20T06:51:22;19.70;93.60
33508;DHT22;25568;37.410;-122.096;2023-12-20T06:53:54;19.70;93.60
33508;DHT22;25568;37.410;-122.096;2023-12-20T06:56:23;19.70;93.60
33508;DHT22;25568;37.410;-122.096;2023-12-20T06:58:53;19.70;93.70
33508;DHT22;25568;37.410;-122.096;2023-12-20T07:01:23;19.70;93.90
33508;DHT22;25568;37.410;-122.096;2023-12-20T07:03:54;19.70;93.80
33508;DHT22;25568;37.410;-122.096;2023-12-20T07:06:23;19.70;93.90
33508;DHT22;25568;37.410;-122.096;2023-12-20T07:08:55;19.70;94.00
33508;DHT22;25568;37.410;-122.096;2023-12-20T07:11:24;19.70;93.90
33508;DHT22;25568;37.410;-122.096;2023-12-20T07:13:53;19.70;93.90
33508;DHT22;25568;37.410;-122.096;2023-12-20T07:16:23;19.70;93.90
33508;DHT22;25568;37.410;-122.096;2023-12-20T07:18:54;19.70;93.90
33508;DHT22;25568;37.410;-122.096;2023-12-20T07:21:24;19.70;93.90
33508;DHT22;25568;37.410;-122.096;2023-12-20T07:23:57;19.70;94.00
33508;DHT22;25568;37.410;-122.096;2023-12-20T07:26:29;19.70;94.00
33508;DHT22;25568;37.410;-122.096;2023-12-20T07:28:58;19.70;94.00
33508;DHT22;25568;37.410;-122.096;2023-12-20T07:31:27;19.70;94.00
33508;DHT22;25568;37.410;-122.096;2023-12-20T07:33:56;19.70;94.00
33508;DHT22;25568;37.410;-122.096;2023-12-20T07:36:26;19.70;94.00
33508;DHT22;25568;37.410;-122.096;2023-12-20T07:38:56;19.70;94.00
33508;DHT22;25568;37.410;-122.096;2023-12-20T07:41:26;19.70;94.00
33508;DHT22;25568;37.410;-122.096;2023-12-20T07:43:55;19.70;94.20
33508;DHT22;25568;37.410;-122.096;2023-12-20T07:46:26;19.70;94.10
33508;DHT22;25568;37.410;-122.096;2023-12-20T07:48:56;19.70;94.00
33508;DHT22;25568;37.410;-122.096;2023-12-20T07:51:25;19.70;94.10
33508;DHT22;25568;37.410;-122.096;2023-12-20T07:53:58;19.70;94.10
33508;DHT22;25568;37.410;-122.096;2023-12-20T07:56:28;19.70;94.00
33508;DHT22;25568;37.410;-122.096;2023-12-20T07:58:57;19.70;94.00
33508;DHT22;25568;37.410;-122.096;2023-12-20T08:01:26;19.70;94.00
33508;DHT22;25568;37.410;-122.096;2023-12-20T08:03:57;19.70;94.10
33508;DHT22;25568;37.410;-122.096;2023-12-20T08:06:26;19.70;94.00
33508;DHT22;25568;37.410;-122.096;2023-12-20T08:08:57;19.70;94.00
33508;DHT22;25568;37.410;-122.096;2023-12-20T08:11:26;19.70;94.10
33508;DHT22;25568;37.410;-122.096;2023-12-20T08:14:06;19.70;94.10
33508;DHT22;25568;37.410;-122.096;2023-12-20T08:16:35;19.70;94.00
33508;DHT22;25568;37.410;-122.096;2023-12-20T08:19:05;19.70;94.10
33508;DHT22;25568;37.410;-122.096;2023-12-20T08:21:34;19.70;94.10
33508;DHT22;25568;37.410;-122.096;2023-12-20T08:24:06;19.70;94.10
33508;DHT22;25568;37.410;-122.096;2023-12-20T08:26:39;19.70;94.20
33508;DHT22;25568;37.410;-122.096;2023-12-20T08:29:09;19.70;94.20
33508;DHT22;25568;37.410;-122.096;2023-12-20T08:31:39;19.70;94.10
33508;DHT22;25568;37.410;-122.096;2023-12-20T08:34:09;19.70;94.20
33508;DHT22;25568;37.410;-122.096;2023-12-20T08:36:41;19.80;94.30
33508;DHT22;25568;37.410;-122.096;2023-12-20T08:39:12;19.70;94.30
33508;DHT22;25568;37.410;-122.096;2023-12-20T08:41:41;19.70;94.30
33508;DHT22;25568;37.410;-122.096;2023-12-20T08:44:11;19.70;94.40
33508;DHT22;25568;37.410;-122.096;2023-12-20T08:46:41;19.70;94.30
33508;DHT22;25568;37.410;-122.096;2023-12-20T08:49:10;19.70;94.40
33508;DHT22;25568;37.410;-122.096;2023-12-20T08:51:39;19.80;94.30
33508;DHT22;25568;37.410;-122.096;2023-12-20T08:54:09;19.80;94.30
33508;DHT22;25568;37.410;-122.096;2023-12-20T08:56:41;19.80;94.30
33508;DHT22;25568;37.410;-122.096;2023-12-20T08:59:11;19.80;94.20
33508;DHT22;25568;37.410;-122.096;2023-12-20T09:01:41;19.80;94.20
33508;DHT22;25568;37.410;-122.096;2023-12-20T09:04:10;19.80;94.20
33508;DHT22;25568;37.410;-122.096;2023-12-20T09:06:39;19.80;94.30
33508;DHT22;25568;37.410;-122.096;2023-12-20T09:09:08;19.80;94.30
33508;DHT22;25568;37.410;-122.096;2023-12-20T09:11:43;19.80;94.30
33508;DHT22;25568;37.410;-122.096;2023-12-20T09:14:14;19.80;94.30
33508;DHT22;25568;37.410;-122.096;2023-12-20T09:16:43;19.80;94.30
33508;DHT22;25568;37.410;-122.096;2023-12-20T09:19:13;19.90;94.30
33508;DHT22;25568;37.410;-122.096;2023-12-20T09:21:43;19.80;94.40
33508;DHT22;25568;37.410;-122.096;2023-12-20T09:24:12;19.80;94.40
33508;DHT22;25568;37.410;-122.096;2023-12-20T09:26:44;19.80;94.40
33508;DHT22;25568;37.410;-122.096;2023-12-20T09:29:13;19.80;94.50
33508;DHT22;25568;37.410;-122.096;2023-12-20T09:31:44;19.90;94.50
33508;DHT22;25568;37.410;-122.096;2023-12-20T09:34:16;19.90;94.50
33508;DHT22;25568;37.410;-122.096;2023-12-20T09:36:46;19.90;94.50
33508;DHT22;25568;37.410;-122.096;2023-12-20T09:39:16;19.90;94.60
33508;DHT22;25568;37.410;-122.096;2023-12-20T09:41:56;19.90;94.60
33508;DHT22;25568;37.410;-122.096;2023-12-20T09:44:44;19.80;94.60
33508;DHT22;25568;37.410;-122.096;2023-12-20T09:47:15;19.90;94.60
33508;DHT22;25568;37.410;-122.096;2023-12-20T09:49:45;19.90;94.70
33508;DHT22;25568;37.410;-122.096;2023-12-20T09:52:16;19.80;94.70
33508;DHT22;25568;37.410;-122.096;2023-12-20T09:54:50;19.90;94.70
33508;DHT22;25568;37.410;-122.096;2023-12-20T09:57:25;19.90;94.70
33508;DHT22;25568;37.410;-122.096;2023-12-20T09:59:54;19.90;94.70
33508;DHT22;25568;37.410;-122.096;2023-12-20T10:02:25;19.90;94.70
33508;DHT22;25568;37.410;-122.096;2023-12-20T10:04:56;19.90;94.70
33508;DHT22;25568;37.410;-122.096;2023-12-20T10:07:25;19.90;94.70
33508;DHT22;25568;37.410;-122.096;2023-12-20T10:09:55;19.90;94.70
33508;DHT22;25568;37.410;-122.096;2023-12-20T10:12:27;19.90;94.80
33508;DHT22;25568;37.410;-122.096;2023-12-20T10:14:58;19.90;94.80
33508;DHT22;25568;37.410;-122.096;2023-12-20T10:17:28;19.90;94.80
33508;DHT22;25568;37.410;-122.096;2023-12-20T10:19:58;19.90;94.80
33508;DHT22;25568;37.410;-122.096;2023-12-20T10:22:27;19.90;94.80
33508;DHT22;25568;37.410;-122.096;2023-12-20T10:24:57;19.90;94.90
33508;DHT22;25568;37.410;-122.096;2023-12-20T10:27:28;19.90;95.00
33508;DHT22;25568;37.410;-122.096;2023-12-20T10:30:01;19.90;95.00
33508;DHT22;25568;37.410;-122.096;2023-12-20T10:32:31;19.90;95.00
33508;DHT22;25568;37.410;-122.096;2023-12-20T10:35:00;19.90;94.90
33508;DHT22;25568;37.410;-122.096;2023-12-20T10:37:30;19.90;95.00
33508;DHT22;25568;37.410;-122.096;2023-12-20T10:40:01;19.90;94.90
33508;DHT22;25568;37.410;-122.096;2023-12-20T10:42:36;19.90;94.80
33508;DHT22;25568;37.410;-122.096;2023-12-20T10:45:06;19.90;94.90
33508;DHT22;25568;37.410;-122.096;2023-12-20T10:47:37;19.90;94.90
33508;DHT22;25568;37.410;-122.096;2023-12-20T10:50:07;19.90;94.90
33508;DHT22;25568;37.410;-122.096;2023-12-20T10:52:41;19.90;94.90
33508;DHT22;25568;37.410;-122.096;2023-12-20T10:55:12;19.90;94.80
33508;DHT22;25568;37.410;-122.096;2023-12-20T10:57:45;19.90;94.80
33508;DHT22;25568;37.410;-122.096;2023-12-20T11:00:18;19.90;94.80
33508;DHT22;25568;37.410;-122.096;2023-12-20T11:02:50;19.90;94.90
33508;DHT22;25568;37.410;-122.096;2023-12-20T11:05:28;19.90;94.80
33508;DHT22;25568;37.410;-122.096;2023-12-20T11:08:02;19.90;94.80
33508;DHT22;25568;37.410;-122.096;2023-12-20T11:13:19;19.90;94.80
33508;DHT22;25568;37.410;-122.096;2023-12-20T11:15:49;19.90;94.90
33508;DHT22;25568;37.410;-122.096;2023-12-20T11:18:18;19.90;94.80
33508;DHT22;25568;37.410;-122.096;2023-12-20T11:20:49;19.90;94.80
33508;DHT22;25568;37.410;-122.096;2023-12-20T11:23:18;19.90;94.80
33508;DHT22;25568;37.410;-122.096;2023-12-20T11:25:49;19.90;94.80
33508;DHT22;25568;37.410;-122.096;2023-12-20T11:28:22;19.90;94.80
33508;DHT22;25568;37.410;-122.096;2023-12-20T11:30:52;19.90;94.80
33508;DHT22;25568;37.410;-122.096;2023-12-20T11:33:25;19.90;94.80
33508;DHT22;25568;37.410;-122.096;2023-12-20T11:35:56;19.90;94.90
33508;DHT22;25568;37.410;-122.096;2023-12-20T11:38:26;19.90;94.90
33508;DHT22;25568;37.410;-122.096;2023-12-20T11:40:55;19.90;94.90
33508;DHT22;25568;37.410;-122.096;2023-12-20T11:43:36;19.90;95.20
33508;DHT22;25568;37.410;-122.096;2023-12-20T11:46:06;19.90;94.90
33508;DHT22;25568;37.410;-122.096;2023-12-20T11:48:37;19.90;94.90
33508;DHT22;25568;37.410;-122.096;2023-12-20T11:51:10;19.90;94.90
33508;DHT22;25568;37.410;-122.096;2023-12-20T11:53:40;19.90;94.90
33508;DHT22;25568;37.410;-122.096;2023-12-20T11:56:09;19.90;94.90
33508;DHT22;25568;37.410;-122.096;2023-12-20T11:58:40;19.90;94.90
33508;DHT22;25568;37.410;-122.096;2023-12-20T12:01:10;19.90;94.80
33508;DHT22;25568;37.410;-122.096;2023-12-20T12:03:39;19.90;94.90
33508;DHT22;25568;37.410;-122.096;2023-12-20T12:06:09;19.90;94.90
33508;DHT22;25568;37.410;-122.096;2023-12-20T12:08:39;19.90;94.90
33508;DHT22;25568;37.410;-122.096;2023-12-20T12:11:08;20.00;94.90
33508;DHT22;25568;37.410;-122.096;2023-12-20T12:13:37;20.00;94.90
33508;DHT22;25568;37.410;-122.096;2023-12-20T12:16:08;20.00;94.90
33508;DHT22;25568;37.410;-122.096;2023-12-20T12:18:43;20.00;94.90
33508;DHT22;25568;37.410;-122.096;2023-12-20T12:21:19;20.00;94.80
33508;DHT22;25568;37.410;-122.096;2023-12-20T12:23:54;20.00;94.80
33508;DHT22;25568;37.410;-122.096;2023-12-20T12:26:34;19.90;94.80
33508;DHT22;25568;37.410;-122.096;2023-12-20T12:29:03;19.90;94.90
33508;DHT22;25568;37.410;-122.096;2023-12-20T12:31:34;19.90;94.90
33508;DHT22;25568;37.410;-122.096;2023-12-20T12:34:03;19.90;94.90
33508;DHT22;25568;37.410;-122.096;2023-12-20T12:36:32;19.90;94.90
33508;DHT22;25568;37.410;-122.096;2023-12-20T12:39:03;19.90;94.80
33508;DHT22;25568;37.410;-122.096;2023-12-20T12:41:33;19.90;94.80
33508;DHT22;25568;37.410;-122.096;2023-12-20T12:44:02;19.90;94.80
33508;DHT22;25568;37.410;-122.096;2023-12-20T12:46:34;19.90;94.80
33508;DHT22;25568;37.410;-122.096;2023-12-20T12:49:03;19.90;94.70
33508;DHT22;25568;37.410;-122.096;2023-12-20T12:51:32;19.90;94.70
33508;DHT22;25568;37.410;-122.096;2023-12-20T12:54:01;19.90;94.70
33508;DHT22;25568;37.410;-122.096;2023-12-20T12:56:30;19.90;94.70
33508;DHT22;25568;37.410;-122.096;2023-12-20T12:58:59;19.90;94.70
33508;DHT22;25568;37.410;-122.096;2023-12-20T13:01:28;19.90;94.70
33508;DHT22;25568;37.410;-122.096;2023-12-20T13:03:59;19.90;94.70
33508;DHT22;25568;37.410;-122.096;2023-12-20T13:06:29;19.90;94.70
33508;DHT22;25568;37.410;-122.096;2023-12-20T13:08:58;19.90;94.70
33508;DHT22;25568;37.410;-122.096;2023-12-20T13:11:28;19.90;94.80
33508;DHT22;25568;37.410;-122.096;2023-12-20T13:13:58;19.90;94.80
33508;DHT22;25568;37.410;-122.096;2023-12-20T13:16:27;19.90;94.80
33508;DHT22;25568;37.410;-122.096;2023-12-20T13:18:59;19.90;94.70
33508;DHT22;25568;37.410;-122.096;2023-12-20T13:21:28;19.90;94.70
33508;DHT22;25568;37.410;-122.096;2023-12-20T13:23:57;19.90;94.70
33508;DHT22;25568;37.410;-122.096;2023-12-20T13:26:26;19.90;94.70
33508;DHT22;25568;37.410;-122.096;2023-12-20T13:28:55;19.90;94.70
33508;DHT22;25568;37.410;-122.096;2023-12-20T13:31:24;19.90;94.80
33508;DHT22;25568;37.410;-122.096;2023-12-20T13:33:53;19.90;94.80
33508;DHT22;25568;37.410;-122.096;2023-12-20T13:36:37;19.90;94.80
33508;DHT22;25568;37.410;-122.096;2023-12-20T13:39:07;19.90;94.80
33508;DHT22;25568;37.410;-122.096;2023-12-20T13:41:37;19.90;94.80
33508;DHT22;25568;37.410;-122.096;2023-12-20T13:44:06;19.90;94.80
33508;DHT22;25568;37.410;-122.096;2023-12-20T13:46:36;19.90;94.90
33508;DHT22;25568;37.410;-122.096;2023-12-20T13:49:05;19.90;94.90
33508;DHT22;25568;37.410;-122.096;2023-12-20T13:51:36;19.90;94.90
33508;DHT22;25568;37.410;-122.096;2023-12-20T13:54:05;19.90;95.00
33508;DHT22;25568;37.410;-122.096;2023-12-20T13:56:35;19.90;94.90
33508;DHT22;25568;37.410;-122.096;2023-12-20T13:59:04;19.90;94.90
33508;DHT22;25568;37.410;-122.096;2023-12-20T14:01:33;19.90;94.90
33508;DHT22;25568;37.410;-122.096;2023-12-20T14:04:03;19.90;94.90
33508;DHT22;25568;37.410;-122.096;2023-12-20T14:06:32;19.90;94.80
33508;DHT22;25568;37.410;-122.096;2023-12-20T14:09:02;19.90;94.80
33508;DHT22;25568;37.410;-122.096;2023-12-20T14:11:32;20.00;94.90
33508;DHT22;25568;37.410;-122.096;2023-12-20T14:14:01;19.90;94.80
33508;DHT22;25568;37.410;-122.096;2023-12-20T14:16:30;20.00;94.80
33508;DHT22;25568;37.410;-122.096;2023-12-20T14:18:59;20.00;95.00
33508;DHT22;25568;37.410;-122.096;2023-12-20T14:21:30;20.00;95.00
33508;DHT22;25568;37.410;-122.096;2023-12-20T14:23:58;20.00;95.00
33508;DHT22;25568;37.410;-122.096;2023-12-20T14:26:29;19.90;94.90
33508;DHT22;25568;37.410;-122.096;2023-12-20T14:28:58;20.00;94.90
33508;DHT22;25568;37.410;-122.096;2023-12-20T14:31:27;19.90;94.90
33508;DHT22;25568;37.410;-122.096;2023-12-20T14:33:56;19.90;94.90
33508;DHT22;25568;37.410;-122.096;2023-12-20T14:36:26;19.90;94.80
33508;DHT22;25568;37.410;-122.096;2023-12-20T14:38:56;19.90;94.90
33508;DHT22;25568;37.410;-122.096;2023-12-20T14:41:25;20.00;94.90
33508;DHT22;25568;37.410;-122.096;2023-12-20T14:43:56;20.00;94.80
33508;DHT22;25568;37.410;-122.096;2023-12-20T14:46:26;20.00;94.80
33508;DHT22;25568;37.410;-122.096;2023-12-20T14:49:04;20.00;94.80
33508;DHT22;25568;37.410;-122.096;2023-12-20T14:51:43;20.00;94.80
33508;DHT22;25568;37.410;-122.096;2023-12-20T14:54:15;19.90;94.70
33508;DHT22;25568;37.410;-122.096;2023-12-20T14:56:44;20.00;94.70
33508;DHT22;25568;37.410;-122.096;2023-12-20T14:59:15;20.00;94.60
33508;DHT22;25568;37.410;-122.096;2023-12-20T15:01:44;20.00;94.60
33508;DHT22;25568;37.410;-122.096;2023-12-20T15:04:14;19.90;94.50
33508;DHT22;25568;37.410;-122.096;2023-12-20T15:06:43;20.00;94.50
33508;DHT22;25568;37.410;-122.096;2023-12-20T15:09:12;20.00;94.50
33508;DHT22;25568;37.410;-122.096;2023-12-20T15:11:41;20.00;94.80